Norfolk, Virginia
Traffic Map
Current Weather Conditions
Norfolk, Virginia
Clear
Clear
76°
Feels Like: 76°
Wind Chill: 76° Ceiling: Unl
Heat Index: 76° Visibility: 10mi
Dew Point: 72° Wind: 0mph
Humidity: 87% Direction: ° ()
Pressure: 29.94in Gusts: 0mph
Raw Report DataKORF 300851Z AUTO 00000KT 10SM CLR 24/22 A2994 RMK AO2 SLP137 T02440222 55002 TSNO
Traffic Incident Summary
Active as of:
Severity:
Category:
InformationThere was an issue retrieving the traffic information for this location. Please try a different location or try again shortly.
Advertisements
Track Severe Weather on mobile